Time;durP1;ratioP1;P1;durP2;ratioP2;P2;SDS_P1;SDS_P2;PMS_P1;PMS_P2;Temp;Humidity;BMP_temperature;BMP_pressure;BME280_temperature;BME280_humidity;BME280_pressure;Samples;Min_cycle;Max_cycle;Signal;HPM_P1;HPM_P2
2021/09/10 00:00:58;;;;;;;34.65;31.15;;;;;;;;;;5025534;28;20045;-69
2021/09/10 00:03:24;;;;;;;31.65;28.30;;;;;;;;;;5015987;28;20041;-68
2021/09/10 00:05:50;;;;;;;30.02;26.98;;;;;;;;;;5020990;28;20045;-68
2021/09/10 00:08:16;;;;;;;30.75;27.45;;;;;;;;;;5006979;28;20108;-68
2021/09/10 00:10:42;;;;;;;30.83;27.73;;;;;;;;;;5013790;28;20040;-68
2021/09/10 00:13:08;;;;;;;30.50;26.20;;;;;;;;;;5020319;28;20048;-68
2021/09/10 00:15:34;;;;;;;28.15;25.13;;;;;;;;;;5011717;28;20049;-68
2021/09/10 00:18:00;;;;;;;27.70;24.65;;;;;;;;;;5025442;28;20355;-68
2021/09/10 00:20:26;;;;;;;28.50;25.42;;;;;;;;;;5010086;28;20056;-68
2021/09/10 00:22:52;;;;;;;27.52;24.77;;;;;;;;;;5015210;28;20045;-68
2021/09/10 00:25:18;;;;;;;28.25;25.30;;;;;;;;;;5020377;28;20061;-68
2021/09/10 00:27:44;;;;;;;26.95;24.20;;;;;;;;;;5026015;28;20041;-68
2021/09/10 00:30:10;;;;;;;29.65;26.65;;;;;;;;;;5013287;28;20056;-69
2021/09/10 00:32:36;;;;;;;32.08;25.77;;;;;;;;;;5015272;28;20077;-68
2021/09/10 00:35:04;;;;;;;30.42;26.42;;;;;;;;;;5020873;28;20476;-68
2021/09/10 00:37:30;;;;;;;30.60;27.35;;;;;;;;;;5025651;28;20045;-68
2021/09/10 00:39:56;;;;;;;31.65;28.27;;;;;;;;;;5013027;28;20045;-68
2021/09/10 00:42:22;;;;;;;31.95;28.55;;;;;;;;;;5015725;28;20038;-68
2021/09/10 00:44:48;;;;;;;34.17;30.80;;;;;;;;;;5017032;28;20116;-69
2021/09/10 00:47:14;;;;;;;32.45;29.13;;;;;;;;;;5013989;28;20056;-69
2021/09/10 00:49:41;;;;;;;31.77;28.38;;;;;;;;;;5015944;28;20044;-70
2021/09/10 00:52:07;;;;;;;33.65;30.10;;;;;;;;;;5020208;28;20038;-69
2021/09/10 00:54:33;;;;;;;34.30;30.83;;;;;;;;;;5021892;28;20042;-69
2021/09/10 00:56:59;;;;;;;35.72;32.20;;;;;;;;;;5013842;28;20050;-69
2021/09/10 00:59:26;;;;;;;37.53;32.10;;;;;;;;;;5017641;28;20184;-69
2021/09/10 01:01:52;;;;;;;33.90;30.10;;;;;;;;;;5010207;28;20466;-69
2021/09/10 01:04:20;;;;;;;33.58;29.77;;;;;;;;;;5015787;28;20383;-69
2021/09/10 01:06:46;;;;;;;34.08;30.50;;;;;;;;;;5014526;28;20091;-69
2021/09/10 01:09:12;;;;;;;35.13;31.40;;;;;;;;;;5021084;28;20350;-69
2021/09/10 01:11:39;;;;;;;34.72;31.08;;;;;;;;;;5010837;28;20041;-68
2021/09/10 01:14:05;;;;;;;34.47;30.90;;;;;;;;;;5019836;28;20050;-68
2021/09/10 01:16:31;;;;;;;32.83;29.38;;;;;;;;;;5012576;28;20037;-68
2021/09/10 01:18:57;;;;;;;31.60;28.27;;;;;;;;;;5016727;28;20048;-68
2021/09/10 01:21:24;;;;;;;31.20;27.95;;;;;;;;;;5013506;28;20379;-68
2021/09/10 01:23:50;;;;;;;31.75;28.38;;;;;;;;;;5016705;28;20060;-69
2021/09/10 01:26:16;;;;;;;31.85;28.63;;;;;;;;;;5016432;28;20501;-68
2021/09/10 01:28:42;;;;;;;34.67;30.65;;;;;;;;;;5013173;28;20442;-68
2021/09/10 01:31:08;;;;;;;33.42;30.02;;;;;;;;;;5024853;28;20099;-68
2021/09/10 01:33:34;;;;;;;33.97;30.58;;;;;;;;;;5012144;28;20042;-68
2021/09/10 01:36:00;;;;;;;32.22;28.80;;;;;;;;;;5000543;28;20127;-68
2021/09/10 01:38:27;;;;;;;31.95;28.85;;;;;;;;;;5012164;28;20041;-68
2021/09/10 01:40:53;;;;;;;30.38;25.30;;;;;;;;;;5025151;28;20049;-68
2021/09/10 01:43:19;;;;;;;33.53;30.05;;;;;;;;;;5009287;28;20785;-68
2021/09/10 01:45:45;;;;;;;32.72;29.23;;;;;;;;;;5013733;28;20042;-68
2021/09/10 01:48:11;;;;;;;32.60;29.17;;;;;;;;;;5014429;28;20046;-68
2021/09/10 01:50:37;;;;;;;34.35;30.70;;;;;;;;;;5021865;28;20049;-68
2021/09/10 01:53:03;;;;;;;33.58;30.17;;;;;;;;;;5009198;28;20096;-68
2021/09/10 01:55:32;;;;;;;33.45;30.05;;;;;;;;;;5015188;28;20041;-68
2021/09/10 01:57:59;;;;;;;32.35;28.92;;;;;;;;;;5009866;28;20144;-68
2021/09/10 02:00:25;;;;;;;35.30;31.48;;;;;;;;;;5020556;28;20058;-68
2021/09/10 02:02:51;;;;;;;31.92;28.60;;;;;;;;;;5011004;28;20037;-68
2021/09/10 02:05:17;;;;;;;34.00;30.40;;;;;;;;;;5020405;28;20038;-68
2021/09/10 02:07:43;;;;;;;31.80;28.38;;;;;;;;;;5014980;28;20520;-68
2021/09/10 02:10:10;;;;;;;33.63;30.00;;;;;;;;;;5014372;28;20057;-68
2021/09/10 02:12:36;;;;;;;35.67;31.58;;;;;;;;;;5018282;28;20038;-68
2021/09/10 02:15:03;;;;;;;35.63;31.92;;;;;;;;;;5015989;28;20140;-68
2021/09/10 02:17:30;;;;;;;34.58;30.98;;;;;;;;;;5001618;28;20037;-69
2021/09/10 02:19:56;;;;;;;33.10;29.67;;;;;;;;;;5012672;28;20088;-68
2021/09/10 02:22:22;;;;;;;33.53;30.10;;;;;;;;;;5022951;28;20037;-68
2021/09/10 02:24:48;;;;;;;36.88;33.08;;;;;;;;;;5013600;28;20049;-68
2021/09/10 02:27:15;;;;;;;39.42;34.08;;;;;;;;;;5014730;28;20120;-68
2021/09/10 02:29:41;;;;;;;39.55;35.33;;;;;;;;;;5019413;28;20037;-68
2021/09/10 02:32:08;;;;;;;39.42;35.40;;;;;;;;;;5021314;28;20122;-68
2021/09/10 02:34:34;;;;;;;44.47;37.53;;;;;;;;;;5012236;28;21267;-68
2021/09/10 02:37:00;;;;;;;41.88;36.92;;;;;;;;;;5020348;28;20034;-68
2021/09/10 02:39:26;;;;;;;46.67;39.17;;;;;;;;;;5018859;28;21194;-68
2021/09/10 02:41:52;;;;;;;45.35;38.35;;;;;;;;;;5016839;28;20046;-69
2021/09/10 02:44:18;;;;;;;49.88;42.85;;;;;;;;;;5019990;28;20183;-69
2021/09/10 02:46:44;;;;;;;47.38;42.30;;;;;;;;;;5014493;28;20048;-69
2021/09/10 02:49:10;;;;;;;49.20;42.75;;;;;;;;;;5020145;28;20442;-69
2021/09/10 02:51:36;;;;;;;46.78;40.88;;;;;;;;;;4993182;28;20056;-69
2021/09/10 02:54:02;;;;;;;45.03;40.38;;;;;;;;;;5021376;28;20057;-69
2021/09/10 02:56:28;;;;;;;50.28;43.60;;;;;;;;;;5009543;28;20119;-69
2021/09/10 02:58:54;;;;;;;50.65;43.47;;;;;;;;;;5018656;28;20136;-69
2021/09/10 03:01:21;;;;;;;54.95;48.00;;;;;;;;;;5025915;28;20468;-69
2021/09/10 03:03:47;;;;;;;54.47;47.75;;;;;;;;;;5019024;28;20088;-69
2021/09/10 03:06:13;;;;;;;63.25;51.78;;;;;;;;;;5014684;28;20092;-69
2021/09/10 03:08:39;;;;;;;64.88;54.80;;;;;;;;;;5013221;28;20037;-69
2021/09/10 03:11:05;;;;;;;61.38;52.80;;;;;;;;;;5012448;28;20073;-69
2021/09/10 03:13:31;;;;;;;67.20;54.65;;;;;;;;;;5022622;28;20470;-69
2021/09/10 03:15:57;;;;;;;63.22;53.50;;;;;;;;;;5014160;28;20395;-69
2021/09/10 03:18:23;;;;;;;67.22;53.80;;;;;;;;;;5014001;28;20045;-69
2021/09/10 03:20:49;;;;;;;63.33;56.15;;;;;;;;;;5017108;28;20486;-69
2021/09/10 03:23:15;;;;;;;60.83;53.03;;;;;;;;;;5016806;28;20469;-69
2021/09/10 03:25:41;;;;;;;63.30;53.08;;;;;;;;;;5018373;28;20042;-69
2021/09/10 03:28:07;;;;;;;56.10;48.30;;;;;;;;;;5021464;28;20071;-69
2021/09/10 03:30:33;;;;;;;65.53;56.03;;;;;;;;;;5024374;28;20037;-68
2021/09/10 03:32:59;;;;;;;60.28;53.72;;;;;;;;;;5021254;28;20045;-68
2021/09/10 03:35:25;;;;;;;59.25;52.35;;;;;;;;;;5023288;28;20129;-68
2021/09/10 03:37:51;;;;;;;66.82;55.90;;;;;;;;;;5018810;28;20048;-68
2021/09/10 03:40:17;;;;;;;75.60;59.20;;;;;;;;;;5021204;28;20037;-68
2021/09/10 03:42:43;;;;;;;57.35;50.58;;;;;;;;;;5017737;28;20455;-67
2021/09/10 03:45:10;;;;;;;70.18;57.72;;;;;;;;;;5022906;28;20058;-68
2021/09/10 03:47:36;;;;;;;75.95;60.08;;;;;;;;;;5011717;28;20029;-69
2021/09/10 03:50:02;;;;;;;72.38;59.38;;;;;;;;;;5019852;28;20042;-69
2021/09/10 03:52:28;;;;;;;71.72;57.97;;;;;;;;;;5017366;28;20049;-68
2021/09/10 03:54:54;;;;;;;64.15;55.00;;;;;;;;;;5022278;28;20116;-68
2021/09/10 03:57:20;;;;;;;69.75;55.75;;;;;;;;;;5011225;28;20443;-68
2021/09/10 03:59:46;;;;;;;74.03;57.25;;;;;;;;;;5024781;28;20187;-68
2021/09/10 04:02:12;;;;;;;59.40;52.95;;;;;;;;;;5021792;28;20441;-68
2021/09/10 04:04:38;;;;;;;71.07;55.70;;;;;;;;;;5017097;28;20053;-68
2021/09/10 04:07:04;;;;;;;58.72;51.45;;;;;;;;;;5021342;28;20046;-69
2021/09/10 04:09:30;;;;;;;68.72;55.63;;;;;;;;;;5012509;28;20102;-69
2021/09/10 04:11:56;;;;;;;76.78;56.20;;;;;;;;;;5021231;28;20042;-69
2021/09/10 04:14:22;;;;;;;58.00;48.28;;;;;;;;;;5017254;28;20057;-69
2021/09/10 04:16:48;;;;;;;55.13;49.00;;;;;;;;;;5023391;28;20061;-69
2021/09/10 04:19:14;;;;;;;68.15;54.20;;;;;;;;;;5011012;28;20169;-69
2021/09/10 04:21:40;;;;;;;70.05;55.95;;;;;;;;;;5021241;28;20340;-69
2021/09/10 04:24:07;;;;;;;74.72;58.05;;;;;;;;;;5015745;28;20041;-69
2021/09/10 04:26:33;;;;;;;66.20;54.67;;;;;;;;;;5017096;28;20046;-69
2021/09/10 04:28:59;;;;;;;76.38;57.28;;;;;;;;;;5012592;28;20038;-69
2021/09/10 04:31:25;;;;;;;78.20;60.03;;;;;;;;;;5020307;28;20127;-69
2021/09/10 04:33:51;;;;;;;57.25;51.13;;;;;;;;;;5009551;28;22110;-69
2021/09/10 04:36:17;;;;;;;57.60;49.28;;;;;;;;;;5002511;28;20053;-68
2021/09/10 04:38:43;;;;;;;61.25;54.30;;;;;;;;;;5024140;28;20482;-68
2021/09/10 04:41:09;;;;;;;77.90;60.97;;;;;;;;;;5016333;28;20465;-68
2021/09/10 04:43:35;;;;;;;58.70;52.42;;;;;;;;;;5016742;28;20033;-68
2021/09/10 04:46:01;;;;;;;63.10;53.80;;;;;;;;;;5020532;28;20057;-68
2021/09/10 04:48:27;;;;;;;87.93;61.75;;;;;;;;;;5016131;28;20049;-68
2021/09/10 04:50:53;;;;;;;102.03;67.35;;;;;;;;;;5014022;28;20129;-68
2021/09/10 04:53:19;;;;;;;56.92;50.95;;;;;;;;;;5017366;28;20052;-68
2021/09/10 04:55:45;;;;;;;57.22;50.90;;;;;;;;;;5020951;28;20082;-68
2021/09/10 04:58:11;;;;;;;58.60;50.70;;;;;;;;;;5022945;28;20053;-68
2021/09/10 05:00:38;;;;;;;67.53;56.72;;;;;;;;;;5011508;28;20088;-68
2021/09/10 05:03:04;;;;;;;57.60;50.28;;;;;;;;;;5020506;28;20030;-68
2021/09/10 05:05:30;;;;;;;82.40;60.13;;;;;;;;;;5019513;28;20407;-68
2021/09/10 05:07:56;;;;;;;57.88;51.47;;;;;;;;;;5017439;28;20038;-68
2021/09/10 05:10:22;;;;;;;70.28;57.05;;;;;;;;;;5009887;28;20041;-68
2021/09/10 05:12:48;;;;;;;60.08;53.47;;;;;;;;;;5015131;28;20121;-68
2021/09/10 05:15:14;;;;;;;65.13;54.00;;;;;;;;;;5012526;28;20038;-68
2021/09/10 05:17:40;;;;;;;89.57;65.10;;;;;;;;;;5020502;28;20525;-68
2021/09/10 05:20:08;;;;;;;64.55;55.42;;;;;;;;;;5014764;28;20038;-68
2021/09/10 05:22:34;;;;;;;101.45;66.03;;;;;;;;;;5010624;28;20045;-68
2021/09/10 05:25:01;;;;;;;89.32;64.95;;;;;;;;;;5019588;28;20088;-68
2021/09/10 05:27:27;;;;;;;134.20;73.57;;;;;;;;;;5010046;28;20058;-68
2021/09/10 05:29:53;;;;;;;65.40;55.25;;;;;;;;;;5015164;28;20103;-68
2021/09/10 05:32:19;;;;;;;64.30;55.80;;;;;;;;;;5014875;28;20029;-68
2021/09/10 05:34:45;;;;;;;99.88;65.38;;;;;;;;;;5015635;28;20042;-68
2021/09/10 05:37:11;;;;;;;190.98;83.72;;;;;;;;;;5011529;28;20038;-68
2021/09/10 05:39:37;;;;;;;147.55;77.78;;;;;;;;;;5012427;28;20054;-68
2021/09/10 05:42:04;;;;;;;125.13;73.90;;;;;;;;;;5013105;28;20494;-68
2021/09/10 05:44:30;;;;;;;109.22;68.15;;;;;;;;;;5014499;28;20056;-68
2021/09/10 05:46:56;;;;;;;144.65;75.80;;;;;;;;;;5011838;28;20050;-68
2021/09/10 05:49:22;;;;;;;178.63;79.30;;;;;;;;;;5015192;28;20039;-68
2021/09/10 05:51:49;;;;;;;200.65;86.25;;;;;;;;;;5010282;28;20058;-68
2021/09/10 05:54:15;;;;;;;135.40;76.45;;;;;;;;;;5017492;28;20103;-68
2021/09/10 05:56:41;;;;;;;132.93;77.43;;;;;;;;;;5016085;28;20058;-68
2021/09/10 05:59:07;;;;;;;123.40;71.78;;;;;;;;;;5012706;28;20136;-68
2021/09/10 06:01:33;;;;;;;127.82;75.32;;;;;;;;;;5019807;28;20123;-68
2021/09/10 06:04:00;;;;;;;127.82;73.85;;;;;;;;;;5008890;28;20526;-68
2021/09/10 06:06:26;;;;;;;122.93;72.55;;;;;;;;;;5016644;28;20399;-68
2021/09/10 06:08:52;;;;;;;113.13;69.55;;;;;;;;;;5015471;28;20096;-68
2021/09/10 06:11:18;;;;;;;124.05;74.22;;;;;;;;;;5021986;28;20076;-68
2021/09/10 06:13:44;;;;;;;113.65;69.22;;;;;;;;;;5009310;28;20053;-68
2021/09/10 06:16:10;;;;;;;80.38;60.90;;;;;;;;;;5023375;28;20045;-68
2021/09/10 06:18:37;;;;;;;93.88;63.00;;;;;;;;;;5016578;28;20053;-68
2021/09/10 06:21:03;;;;;;;111.30;68.55;;;;;;;;;;5020554;28;20056;-68
2021/09/10 06:23:30;;;;;;;82.82;60.75;;;;;;;;;;5008286;28;20393;-68
2021/09/10 06:25:56;;;;;;;79.40;58.25;;;;;;;;;;5029344;28;20061;-68
2021/09/10 06:28:22;;;;;;;83.60;57.75;;;;;;;;;;5007829;28;20156;-68
2021/09/10 06:30:48;;;;;;;77.97;54.20;;;;;;;;;;5012479;28;20033;-68
2021/09/10 06:33:14;;;;;;;85.72;57.47;;;;;;;;;;5009912;28;20056;-68
2021/09/10 06:35:40;;;;;;;75.90;54.88;;;;;;;;;;5018611;28;20414;-68
2021/09/10 06:38:06;;;;;;;70.97;53.90;;;;;;;;;;5021188;28;20601;-68
2021/09/10 06:40:33;;;;;;;59.40;49.08;;;;;;;;;;5006733;28;20041;-68
2021/09/10 06:43:00;;;;;;;64.75;49.70;;;;;;;;;;5015724;28;20287;-68
2021/09/10 06:45:26;;;;;;;62.08;49.25;;;;;;;;;;5010968;28;20049;-68
2021/09/10 06:47:53;;;;;;;65.32;48.47;;;;;;;;;;5022313;28;20485;-68
2021/09/10 06:50:19;;;;;;;51.42;42.65;;;;;;;;;;5008138;28;20042;-68
2021/09/10 06:52:45;;;;;;;58.45;46.25;;;;;;;;;;5014979;28;20044;-68
2021/09/10 06:55:11;;;;;;;52.65;44.80;;;;;;;;;;5010805;28;20038;-68
2021/09/10 06:57:38;;;;;;;56.03;44.70;;;;;;;;;;5022159;28;20116;-68
2021/09/10 07:00:05;;;;;;;49.65;43.47;;;;;;;;;;5020084;28;20049;-68
2021/09/10 07:02:31;;;;;;;53.10;43.95;;;;;;;;;;5017033;28;20050;-68
2021/09/10 07:04:57;;;;;;;54.50;44.13;;;;;;;;;;5010485;28;20121;-68
2021/09/10 07:07:23;;;;;;;50.90;42.13;;;;;;;;;;5023368;28;20041;-68
2021/09/10 07:09:51;;;;;;;56.38;43.17;;;;;;;;;;5016510;28;20076;-67
2021/09/10 07:12:17;;;;;;;50.63;41.25;;;;;;;;;;5024344;28;20025;-68
2021/09/10 07:14:43;;;;;;;49.28;42.47;;;;;;;;;;5016175;28;20103;-67
2021/09/10 07:17:10;;;;;;;51.72;42.00;;;;;;;;;;5015016;28;20050;-67
2021/09/10 07:19:36;;;;;;;53.40;42.42;;;;;;;;;;5020468;28;20060;-67
2021/09/10 07:22:02;;;;;;;50.05;43.00;;;;;;;;;;5018776;28;20099;-68
2021/09/10 07:24:29;;;;;;;60.83;45.13;;;;;;;;;;5026423;28;20383;-68
2021/09/10 07:26:55;;;;;;;50.10;42.38;;;;;;;;;;5016207;28;20121;-68
2021/09/10 07:29:23;;;;;;;53.58;42.28;;;;;;;;;;5017134;28;20127;-68
2021/09/10 07:31:49;;;;;;;50.65;42.25;;;;;;;;;;5014590;28;20045;-68
2021/09/10 07:34:16;;;;;;;52.70;41.97;;;;;;;;;;5025758;28;20197;-68
2021/09/10 07:36:48;;;;;;;48.78;42.75;;;;;;;;;;5016115;28;20048;-68
2021/09/10 07:39:14;;;;;;;52.15;43.35;;;;;;;;;;5020583;28;20049;-68
2021/09/10 07:41:40;;;;;;;50.95;42.75;;;;;;;;;;5013035;28;20041;-68
2021/09/10 07:44:07;;;;;;;53.22;45.33;;;;;;;;;;5022609;28;20081;-68
2021/09/10 07:46:33;;;;;;;49.35;43.45;;;;;;;;;;5015528;28;20038;-68
2021/09/10 07:48:59;;;;;;;46.80;41.33;;;;;;;;;;5020883;28;20124;-68
2021/09/10 07:51:25;;;;;;;50.92;43.13;;;;;;;;;;5020899;28;20034;-68
2021/09/10 07:53:51;;;;;;;47.80;42.17;;;;;;;;;;5015733;28;20046;-68
2021/09/10 07:56:18;;;;;;;50.90;43.13;;;;;;;;;;5022346;28;20038;-68
2021/09/10 07:58:44;;;;;;;49.83;43.45;;;;;;;;;;5017713;28;20057;-68
2021/09/10 08:01:10;;;;;;;52.17;43.38;;;;;;;;;;5022428;28;20054;-69
2021/09/10 08:03:36;;;;;;;48.70;43.38;;;;;;;;;;5014638;28;20048;-69
2021/09/10 08:06:02;;;;;;;49.97;43.63;;;;;;;;;;5020191;28;20034;-68
2021/09/10 08:08:28;;;;;;;51.25;43.60;;;;;;;;;;5011018;28;20068;-68
2021/09/10 08:10:54;;;;;;;52.05;46.05;;;;;;;;;;5021947;28;20041;-68
2021/09/10 08:13:21;;;;;;;48.90;43.60;;;;;;;;;;5015531;28;20050;-68
2021/09/10 08:15:47;;;;;;;49.10;42.95;;;;;;;;;;5024826;28;20061;-68
2021/09/10 08:18:13;;;;;;;49.97;44.53;;;;;;;;;;5013648;28;20089;-68
2021/09/10 08:20:39;;;;;;;48.22;43.10;;;;;;;;;;5026958;28;20394;-68
2021/09/10 08:23:06;;;;;;;48.38;43.20;;;;;;;;;;4998103;28;20049;-68
2021/09/10 08:25:32;;;;;;;53.30;47.60;;;;;;;;;;5017165;28;20042;-68
2021/09/10 08:27:58;;;;;;;49.67;44.35;;;;;;;;;;5017507;28;20034;-68
2021/09/10 08:30:24;;;;;;;49.97;44.70;;;;;;;;;;5021979;28;20126;-68
2021/09/10 08:32:52;;;;;;;55.00;47.03;;;;;;;;;;5011779;28;20038;-68
2021/09/10 08:35:18;;;;;;;56.58;50.47;;;;;;;;;;5016692;28;20550;-68
2021/09/10 08:37:44;;;;;;;60.97;54.28;;;;;;;;;;5016051;28;20029;-68
2021/09/10 08:40:10;;;;;;;75.68;62.55;;;;;;;;;;5014878;28;20042;-69
2021/09/10 08:42:39;;;;;;;61.97;53.78;;;;;;;;;;5018527;28;20136;-68
2021/09/10 08:45:06;;;;;;;59.67;53.13;;;;;;;;;;5013538;28;20045;-69
2021/09/10 08:47:32;;;;;;;54.65;48.83;;;;;;;;;;5015171;28;20092;-69
2021/09/10 08:49:58;;;;;;;49.78;44.63;;;;;;;;;;5011987;28;20049;-69
2021/09/10 08:52:24;;;;;;;48.45;43.33;;;;;;;;;;5016118;28;20041;-69
2021/09/10 08:54:50;;;;;;;45.72;41.03;;;;;;;;;;5011851;28;20205;-69
2021/09/10 08:57:16;;;;;;;46.47;41.78;;;;;;;;;;5016561;28;20049;-69
2021/09/10 08:59:43;;;;;;;45.05;40.65;;;;;;;;;;5010342;28;20140;-69
2021/09/10 09:02:09;;;;;;;46.67;42.17;;;;;;;;;;5014968;28;20142;-69
2021/09/10 09:04:37;;;;;;;48.55;43.75;;;;;;;;;;5019284;28;20065;-69
2021/09/10 09:07:07;;;;;;;50.58;45.55;;;;;;;;;;5003786;28;20140;-69
2021/09/10 09:09:51;;;;;;;47.83;43.13;;;;;;;;;;5008655;28;20041;-69
2021/09/10 09:12:24;;;;;;;46.33;41.83;;;;;;;;;;5016788;28;20057;-69
2021/09/10 09:14:54;;;;;;;46.58;42.08;;;;;;;;;;5018313;28;20107;-69
2021/09/10 09:17:26;;;;;;;46.13;41.80;;;;;;;;;;5019881;28;20498;-69
2021/09/10 09:20:11;;;;;;;47.55;42.72;;;;;;;;;;5010335;28;20520;-69
2021/09/10 09:22:56;;;;;;;45.15;40.83;;;;;;;;;;5013344;28;20413;-69
2021/09/10 09:25:23;;;;;;;42.92;38.88;;;;;;;;;;5007251;28;20042;-68
2021/09/10 09:27:49;;;;;;;41.83;37.83;;;;;;;;;;5014863;28;20104;-68
2021/09/10 09:30:33;;;;;;;39.85;36.30;;;;;;;;;;5013718;28;20046;-68
2021/09/10 09:32:59;;;;;;;40.67;36.72;;;;;;;;;;5016837;28;20060;-68
2021/09/10 09:35:29;;;;;;;41.38;37.60;;;;;;;;;;5017188;28;20073;-68
2021/09/10 09:37:55;;;;;;;39.78;36.17;;;;;;;;;;5016823;28;20402;-68
2021/09/10 09:40:29;;;;;;;41.63;37.75;;;;;;;;;;5015816;28;20202;-68
2021/09/10 09:42:55;;;;;;;42.80;38.55;;;;;;;;;;5014793;28;20046;-68
2021/09/10 09:45:24;;;;;;;101.43;53.42;;;;;;;;;;5016893;28;20079;-68
2021/09/10 09:47:50;;;;;;;38.72;34.80;;;;;;;;;;5010072;28;20045;-68
2021/09/10 09:50:17;;;;;;;41.90;37.60;;;;;;;;;;5017964;28;20051;-68
2021/09/10 09:52:52;;;;;;;37.22;33.15;;;;;;;;;;5008927;28;20453;-68
2021/09/10 09:55:19;;;;;;;34.90;31.52;;;;;;;;;;5024692;28;20069;-68
2021/09/10 09:57:45;;;;;;;33.30;30.20;;;;;;;;;;5012627;28;20572;-68
2021/09/10 10:00:12;;;;;;;31.23;28.50;;;;;;;;;;5016362;28;20409;-68
2021/09/10 10:02:39;;;;;;;32.67;29.63;;;;;;;;;;5013711;28;20545;-68
2021/09/10 10:05:05;;;;;;;32.05;29.17;;;;;;;;;;5019575;28;20037;-68
2021/09/10 10:07:45;;;;;;;32.72;29.75;;;;;;;;;;5008711;28;20179;-68
2021/09/10 10:10:14;;;;;;;35.53;32.40;;;;;;;;;;5016898;28;20041;-68
2021/09/10 10:12:41;;;;;;;34.70;31.52;;;;;;;;;;5011158;28;20053;-68
2021/09/10 10:15:23;;;;;;;33.83;30.88;;;;;;;;;;5018765;28;20050;-68
2021/09/10 10:17:50;;;;;;;32.83;29.90;;;;;;;;;;5014638;28;20033;-68
2021/09/10 10:20:42;;;;;;;30.08;27.35;;;;;;;;;;5020065;28;20052;-68
2021/09/10 10:23:27;;;;;;;29.77;27.27;;;;;;;;;;5010190;28;20093;-68
2021/09/10 10:26:06;;;;;;;30.45;27.65;;;;;;;;;;5014109;28;20034;-68
2021/09/10 10:28:43;;;;;;;28.85;26.42;;;;;;;;;;5010157;28;20045;-69
2021/09/10 10:31:09;;;;;;;32.90;30.15;;;;;;;;;;5018545;28;20038;-68
2021/09/10 10:33:35;;;;;;;31.65;29.17;;;;;;;;;;5008898;28;20461;-68
2021/09/10 10:36:20;;;;;;;29.98;27.58;;;;;;;;;;5016483;28;20045;-68
2021/09/10 10:39:05;;;;;;;32.78;29.50;;;;;;;;;;5012466;28;20472;-68
2021/09/10 10:41:43;;;;;;;32.53;29.63;;;;;;;;;;5021967;28;20038;-68
2021/09/10 10:44:28;;;;;;;30.92;28.17;;;;;;;;;;5012927;28;20034;-68
2021/09/10 10:47:04;;;;;;;32.67;29.73;;;;;;;;;;5022473;28;20103;-69
2021/09/10 10:49:49;;;;;;;34.35;31.25;;;;;;;;;;5017261;28;20537;-68
2021/09/10 10:52:35;;;;;;;35.97;32.75;;;;;;;;;;5018242;28;20049;-68
2021/09/10 10:55:14;;;;;;;33.47;30.67;;;;;;;;;;5014113;28;20409;-68
2021/09/10 10:57:40;;;;;;;31.55;29.00;;;;;;;;;;5019817;28;20368;-68
2021/09/10 11:00:24;;;;;;;32.35;29.52;;;;;;;;;;5015648;28;20054;-68
2021/09/10 11:02:51;;;;;;;32.22;29.52;;;;;;;;;;5015264;28;20068;-68
2021/09/10 11:05:20;;;;;;;32.60;29.70;;;;;;;;;;5012676;28;20045;-68
2021/09/10 11:07:46;;;;;;;30.27;27.70;;;;;;;;;;5016047;28;20184;-68
2021/09/10 11:10:16;;;;;;;31.17;28.38;;;;;;;;;;5014802;28;20089;-68
2021/09/10 11:12:43;;;;;;;29.95;27.33;;;;;;;;;;5025660;28;20110;-68
2021/09/10 11:15:38;;;;;;;28.52;26.02;;;;;;;;;;5017271;28;20401;-68
2021/09/10 11:18:14;;;;;;;28.02;25.73;;;;;;;;;;5019091;28;20426;-68
2021/09/10 11:20:44;;;;;;;28.30;25.77;;;;;;;;;;5012639;28;20514;-68
2021/09/10 11:23:14;;;;;;;27.65;25.25;;;;;;;;;;5024589;28;20041;-68
2021/09/10 11:25:48;;;;;;;27.73;25.52;;;;;;;;;;5013082;28;20044;-68
2021/09/10 11:28:14;;;;;;;27.55;25.15;;;;;;;;;;5019659;28;20530;-68
2021/09/10 11:30:40;;;;;;;27.75;25.55;;;;;;;;;;5013794;28;20045;-68
2021/09/10 11:33:06;;;;;;;26.75;24.27;;;;;;;;;;5026351;28;20494;-68
2021/09/10 11:35:35;;;;;;;29.38;26.67;;;;;;;;;;5014603;28;20065;-68
2021/09/10 11:38:04;;;;;;;29.40;26.90;;;;;;;;;;5025169;28;20160;-68
2021/09/10 11:40:30;;;;;;;28.75;26.27;;;;;;;;;;5012898;28;20372;-68
2021/09/10 11:43:06;;;;;;;27.98;25.60;;;;;;;;;;5017954;28;20046;-68
2021/09/10 11:45:35;;;;;;;27.25;25.00;;;;;;;;;;5013200;28;20053;-68
2021/09/10 11:48:08;;;;;;;27.00;24.52;;;;;;;;;;5022999;28;20099;-68
2021/09/10 11:50:47;;;;;;;27.15;24.95;;;;;;;;;;5010790;28;20077;-68
2021/09/10 11:53:14;;;;;;;25.98;23.88;;;;;;;;;;5014927;28;20061;-68
2021/09/10 11:55:50;;;;;;;23.60;21.48;;;;;;;;;;5012644;28;20081;-68
2021/09/10 11:58:16;;;;;;;23.85;21.92;;;;;;;;;;5019691;28;20544;-68
2021/09/10 12:00:43;;;;;;;24.92;22.83;;;;;;;;;;5027361;28;20088;-69
2021/09/10 12:03:09;;;;;;;23.40;21.30;;;;;;;;;;5010605;28;20050;-68
2021/09/10 12:05:35;;;;;;;23.70;21.80;;;;;;;;;;5018788;28;20116;-68
2021/09/10 12:08:01;;;;;;;22.25;20.38;;;;;;;;;;5012215;28;20033;-68
2021/09/10 12:10:34;;;;;;;19.75;18.15;;;;;;;;;;5022907;28;20065;-68
2021/09/10 12:13:10;;;;;;;19.10;17.48;;;;;;;;;;5017016;28;20084;-68
2021/09/10 12:15:37;;;;;;;17.77;16.17;;;;;;;;;;5017363;28;20049;-68
2021/09/10 12:18:16;;;;;;;15.70;14.48;;;;;;;;;;5017188;28;20160;-68
2021/09/10 12:20:43;;;;;;;15.48;14.13;;;;;;;;;;5030089;28;20058;-68
2021/09/10 12:23:18;;;;;;;14.85;13.50;;;;;;;;;;5012693;28;20132;-68
2021/09/10 12:25:46;;;;;;;16.00;14.68;;;;;;;;;;5022270;28;20029;-68
2021/09/10 12:28:14;;;;;;;15.57;14.18;;;;;;;;;;5018000;28;20073;-68
2021/09/10 12:30:41;;;;;;;17.10;15.70;;;;;;;;;;5019005;28;20115;-68
2021/09/10 12:33:09;;;;;;;17.88;16.27;;;;;;;;;;5017386;28;20075;-68
2021/09/10 12:35:36;;;;;;;17.65;15.88;;;;;;;;;;5025690;28;20123;-67
2021/09/10 12:38:04;;;;;;;16.23;14.93;;;;;;;;;;5016959;28;20037;-68
2021/09/10 12:40:35;;;;;;;16.95;15.52;;;;;;;;;;5031434;28;20433;-68
2021/09/10 12:43:01;;;;;;;18.77;17.13;;;;;;;;;;5016482;28;20044;-68
2021/09/10 12:45:28;;;;;;;16.95;15.38;;;;;;;;;;5019423;28;20116;-67
2021/09/10 12:47:55;;;;;;;15.40;13.95;;;;;;;;;;5013304;28;20478;-67
2021/09/10 12:50:21;;;;;;;15.70;14.25;;;;;;;;;;5018640;28;20041;-67
2021/09/10 12:52:47;;;;;;;17.70;13.88;;;;;;;;;;5021619;28;20082;-70
2021/09/10 12:55:14;;;;;;;11.68;10.60;;;;;;;;;;5015205;28;20050;-68
2021/09/10 12:57:40;;;;;;;9.80;8.75;;;;;;;;;;5021032;28;20125;-68
2021/09/10 13:00:07;;;;;;;11.13;9.73;;;;;;;;;;5019052;28;20042;-68
2021/09/10 13:02:33;;;;;;;11.13;10.02;;;;;;;;;;5022399;28;20063;-68
2021/09/10 13:05:00;;;;;;;11.50;10.48;;;;;;;;;;5013318;28;20046;-68
2021/09/10 13:07:26;;;;;;;9.55;7.85;;;;;;;;;;5016060;28;20044;-69
2021/09/10 13:09:52;;;;;;;6.68;5.40;;;;;;;;;;5013406;28;20041;-69
2021/09/10 13:12:18;;;;;;;5.35;4.45;;;;;;;;;;5018138;28;20038;-69
2021/09/10 13:14:48;;;;;;;4.65;4.03;;;;;;;;;;5011992;28;20076;-69
2021/09/10 13:17:22;;;;;;;6.35;4.50;;;;;;;;;;5018458;28;20064;-69
2021/09/10 13:19:48;;;;;;;4.90;4.40;;;;;;;;;;5016122;28;20105;-69
2021/09/10 13:22:14;;;;;;;6.10;4.70;;;;;;;;;;5024115;28;20084;-69
2021/09/10 13:24:43;;;;;;;4.78;3.80;;;;;;;;;;5009234;28;20034;-69
2021/09/10 13:27:10;;;;;;;5.55;5.05;;;;;;;;;;5018002;28;20045;-69
2021/09/10 13:29:36;;;;;;;6.38;5.78;;;;;;;;;;5011902;28;20068;-69
2021/09/10 13:32:03;;;;;;;6.20;5.57;;;;;;;;;;5019137;28;20122;-68
2021/09/10 13:34:29;;;;;;;6.78;5.30;;;;;;;;;;5011143;28;20060;-68
2021/09/10 13:36:55;;;;;;;5.47;4.70;;;;;;;;;;5018458;28;20049;-68
2021/09/10 13:39:21;;;;;;;6.05;4.70;;;;;;;;;;5018747;28;20125;-68
2021/09/10 13:41:47;;;;;;;6.03;5.03;;;;;;;;;;5014316;28;20045;-68
2021/09/10 13:44:14;;;;;;;8.75;4.90;;;;;;;;;;5025426;28;20128;-68
2021/09/10 13:46:40;;;;;;;5.25;4.70;;;;;;;;;;5018460;28;20033;-68
2021/09/10 13:49:07;;;;;;;6.10;4.68;;;;;;;;;;5023060;28;20140;-68
2021/09/10 13:51:34;;;;;;;5.68;4.47;;;;;;;;;;5014806;28;20041;-68
2021/09/10 13:54:00;;;;;;;6.40;4.40;;;;;;;;;;5024194;28;20141;-68
2021/09/10 13:56:27;;;;;;;5.57;3.80;;;;;;;;;;5016467;28;20037;-68
2021/09/10 13:58:54;;;;;;;4.70;4.10;;;;;;;;;;5023912;28;20469;-68
2021/09/10 14:01:20;;;;;;;4.90;4.38;;;;;;;;;;5009724;28;20413;-68
2021/09/10 14:03:47;;;;;;;5.63;4.00;;;;;;;;;;5014511;28;20061;-68
2021/09/10 14:06:13;;;;;;;6.03;4.43;;;;;;;;;;5010502;28;20045;-68
2021/09/10 14:08:39;;;;;;;7.15;5.03;;;;;;;;;;5014216;28;20445;-68
2021/09/10 14:11:05;;;;;;;6.68;4.72;;;;;;;;;;5008688;28;20048;-68
2021/09/10 14:13:32;;;;;;;5.45;4.88;;;;;;;;;;5016816;28;20046;-65
2021/09/10 14:15:58;;;;;;;6.95;5.85;;;;;;;;;;5016516;28;20083;-66
2021/09/10 14:18:24;;;;;;;6.20;5.57;;;;;;;;;;5009348;28;20394;-65
2021/09/10 14:20:50;;;;;;;7.18;5.93;;;;;;;;;;5015126;28;20400;-65